Huvudsida
METAR-TAF:

METAR-TAF

Flygplatser :

Genèves internationella flygplats

Genève, Schweiz

latitud: 46-15N, longitud: 006-08E, höjd: 420 m

Aktuellt väderrapport

Denna rapport gjordes för 19 minuter sedan, klockan 18:20 UTC
Vind 1 kt varierande vindriktning
Temperatur 2°C
Fuktighet 60%
Tryck 1011 hPa
Sikt 10 km eller mer
Få moln på en höjd av 2000 ft
Spridda moln på en höjd av 3000 ft
Brutna moln på en höjd av 5000 ft
skurar i närheten

METAR: LSGG 131820Z VRB01KT 9999 VCSH FEW020 SCT030 BKN050 02/M05 Q1011 NOSIG

Tid: 19:39 (18:39 UTC)

Väderprognos

Denna rapport gjordes för 1 timme och 14 minuter sedan, klockan 17:25 UTC
Prognos gäller från 13 kl. 18 UTC till 14 kl. 24 UTC
Vind 3 kt varierande vindriktning
Sikt 10 km eller mer
Få moln på en höjd av 1500 ft
Spridda moln på en höjd av 3000 ft
Brutna moln på en höjd av 5000 ft

TAF: LSGG 131725Z 1318/1424 VRB03KT 9999 FEW015 SCT030 BKN050 TX02/1414Z TNM01/1406Z

Aktuella väderrapporter och prognoser från 4000 flygplatser (METAR- och TAF-rapporter).

De tillgängliga stationerna syns som gula och röda prickar på kartan.

För musen över prickarna för att se namnen på stationerna.

Klicka sedan för att få väderrapporter och prognoser.

För att ändra kartan: Klicka på de gröna knapparna med ett svart kors på för att zooma in; den gröna knappen med ett streck på för att zooma ut; eller på de gröna pilarna för angränsande kartor.


METAR-TAF: